sensor_id;sensor_type;location;lat;lon;timestamp;P1;durP1;ratioP1;P2;durP2;ratioP2
8986;SDS011;4529;51.360;12.474;2023-05-28T00:01:21;5.80;;;4.50;;
8986;SDS011;4529;51.360;12.474;2023-05-28T00:06:24;6.27;;;4.60;;
8986;SDS011;4529;51.360;12.474;2023-05-28T00:11:28;7.97;;;4.70;;
8986;SDS011;4529;51.360;12.474;2023-05-28T00:16:31;6.50;;;4.33;;
8986;SDS011;4529;51.360;12.474;2023-05-28T00:21:35;7.63;;;4.47;;
8986;SDS011;4529;51.360;12.474;2023-05-28T00:26:43;5.90;;;4.37;;
8986;SDS011;4529;51.360;12.474;2023-05-28T00:31:47;6.60;;;4.17;;
8986;SDS011;4529;51.360;12.474;2023-05-28T00:36:50;5.90;;;4.30;;
8986;SDS011;4529;51.360;12.474;2023-05-28T00:42:00;5.07;;;4.17;;
8986;SDS011;4529;51.360;12.474;2023-05-28T00:47:04;6.60;;;4.13;;
8986;SDS011;4529;51.360;12.474;2023-05-28T00:52:08;5.80;;;4.17;;
8986;SDS011;4529;51.360;12.474;2023-05-28T00:57:11;5.47;;;4.03;;
8986;SDS011;4529;51.360;12.474;2023-05-28T01:02:15;5.57;;;3.97;;
8986;SDS011;4529;51.360;12.474;2023-05-28T01:07:18;5.80;;;4.07;;
8986;SDS011;4529;51.360;12.474;2023-05-28T01:12:21;6.70;;;3.57;;
8986;SDS011;4529;51.360;12.474;2023-05-28T01:17:25;6.93;;;3.87;;
8986;SDS011;4529;51.360;12.474;2023-05-28T01:22:28;6.37;;;4.10;;
8986;SDS011;4529;51.360;12.474;2023-05-28T01:27:32;5.50;;;3.93;;
8986;SDS011;4529;51.360;12.474;2023-05-28T01:32:35;5.90;;;3.83;;
8986;SDS011;4529;51.360;12.474;2023-05-28T01:37:39;5.40;;;3.93;;
8986;SDS011;4529;51.360;12.474;2023-05-28T01:42:42;5.80;;;4.17;;
8986;SDS011;4529;51.360;12.474;2023-05-28T01:47:46;5.10;;;4.00;;
8986;SDS011;4529;51.360;12.474;2023-05-28T01:52:49;5.57;;;3.73;;
8986;SDS011;4529;51.360;12.474;2023-05-28T01:57:53;5.90;;;3.87;;
8986;SDS011;4529;51.360;12.474;2023-05-28T02:02:56;5.83;;;3.77;;
8986;SDS011;4529;51.360;12.474;2023-05-28T02:08:00;6.93;;;3.67;;
8986;SDS011;4529;51.360;12.474;2023-05-28T02:13:04;6.53;;;3.80;;
8986;SDS011;4529;51.360;12.474;2023-05-28T02:18:08;5.90;;;3.63;;
8986;SDS011;4529;51.360;12.474;2023-05-28T02:23:12;5.83;;;4.10;;
8986;SDS011;4529;51.360;12.474;2023-05-28T02:28:17;6.87;;;3.90;;
8986;SDS011;4529;51.360;12.474;2023-05-28T02:33:20;5.10;;;3.63;;
8986;SDS011;4529;51.360;12.474;2023-05-28T02:38:24;8.00;;;3.73;;
8986;SDS011;4529;51.360;12.474;2023-05-28T02:43:27;5.77;;;4.00;;
8986;SDS011;4529;51.360;12.474;2023-05-28T02:48:30;4.23;;;3.37;;
8986;SDS011;4529;51.360;12.474;2023-05-28T02:53:34;5.23;;;3.63;;
8986;SDS011;4529;51.360;12.474;2023-05-28T02:58:38;8.17;;;4.40;;
8986;SDS011;4529;51.360;12.474;2023-05-28T03:03:42;5.17;;;3.67;;
8986;SDS011;4529;51.360;12.474;2023-05-28T03:08:46;6.17;;;3.90;;
8986;SDS011;4529;51.360;12.474;2023-05-28T03:13:49;4.60;;;3.50;;
8986;SDS011;4529;51.360;12.474;2023-05-28T03:18:52;5.90;;;3.60;;
8986;SDS011;4529;51.360;12.474;2023-05-28T03:23:56;5.67;;;3.63;;
8986;SDS011;4529;51.360;12.474;2023-05-28T03:28:59;4.77;;;3.40;;
8986;SDS011;4529;51.360;12.474;2023-05-28T03:34:03;7.03;;;3.77;;
8986;SDS011;4529;51.360;12.474;2023-05-28T03:39:08;5.97;;;3.80;;
8986;SDS011;4529;51.360;12.474;2023-05-28T03:44:11;5.67;;;3.50;;
8986;SDS011;4529;51.360;12.474;2023-05-28T03:49:15;7.13;;;3.80;;
8986;SDS011;4529;51.360;12.474;2023-05-28T03:54:19;6.17;;;4.03;;
8986;SDS011;4529;51.360;12.474;2023-05-28T03:59:22;6.43;;;3.97;;
8986;SDS011;4529;51.360;12.474;2023-05-28T04:04:26;6.10;;;3.90;;
8986;SDS011;4529;51.360;12.474;2023-05-28T04:09:29;5.30;;;3.50;;
8986;SDS011;4529;51.360;12.474;2023-05-28T04:14:33;5.20;;;3.17;;
8986;SDS011;4529;51.360;12.474;2023-05-28T04:19:37;4.50;;;3.07;;
8986;SDS011;4529;51.360;12.474;2023-05-28T04:24:41;4.13;;;3.00;;
8986;SDS011;4529;51.360;12.474;2023-05-28T04:29:44;4.87;;;3.20;;
8986;SDS011;4529;51.360;12.474;2023-05-28T04:34:48;4.80;;;3.07;;
8986;SDS011;4529;51.360;12.474;2023-05-28T04:39:51;4.17;;;3.77;;
8986;SDS011;4529;51.360;12.474;2023-05-28T04:44:55;5.83;;;3.80;;
8986;SDS011;4529;51.360;12.474;2023-05-28T04:49:58;6.13;;;4.00;;
8986;SDS011;4529;51.360;12.474;2023-05-28T04:55:02;5.77;;;4.30;;
8986;SDS011;4529;51.360;12.474;2023-05-28T05:00:06;6.10;;;3.97;;
8986;SDS011;4529;51.360;12.474;2023-05-28T05:05:09;10.33;;;4.50;;
8986;SDS011;4529;51.360;12.474;2023-05-28T05:10:13;6.93;;;4.37;;
8986;SDS011;4529;51.360;12.474;2023-05-28T05:15:16;9.07;;;4.50;;
8986;SDS011;4529;51.360;12.474;2023-05-28T05:20:20;7.67;;;4.73;;
8986;SDS011;4529;51.360;12.474;2023-05-28T05:25:23;5.40;;;4.37;;
8986;SDS011;4529;51.360;12.474;2023-05-28T05:30:27;7.87;;;4.53;;
8986;SDS011;4529;51.360;12.474;2023-05-28T05:35:30;5.60;;;4.27;;
8986;SDS011;4529;51.360;12.474;2023-05-28T05:40:34;9.40;;;4.60;;
8986;SDS011;4529;51.360;12.474;2023-05-28T05:45:37;6.67;;;4.47;;
8986;SDS011;4529;51.360;12.474;2023-05-28T05:50:47;7.30;;;4.73;;
8986;SDS011;4529;51.360;12.474;2023-05-28T05:55:50;7.13;;;4.30;;
8986;SDS011;4529;51.360;12.474;2023-05-28T06:00:54;5.40;;;3.93;;
8986;SDS011;4529;51.360;12.474;2023-05-28T06:05:57;6.80;;;3.93;;
8986;SDS011;4529;51.360;12.474;2023-05-28T06:11:01;7.07;;;4.30;;
8986;SDS011;4529;51.360;12.474;2023-05-28T06:16:04;6.07;;;4.47;;
8986;SDS011;4529;51.360;12.474;2023-05-28T06:21:08;11.60;;;4.27;;
8986;SDS011;4529;51.360;12.474;2023-05-28T06:26:11;9.23;;;4.20;;
8986;SDS011;4529;51.360;12.474;2023-05-28T06:31:14;7.13;;;4.03;;
8986;SDS011;4529;51.360;12.474;2023-05-28T06:36:18;7.47;;;4.03;;
8986;SDS011;4529;51.360;12.474;2023-05-28T06:41:21;7.50;;;4.20;;
8986;SDS011;4529;51.360;12.474;2023-05-28T06:46:25;8.10;;;4.43;;
8986;SDS011;4529;51.360;12.474;2023-05-28T06:51:28;7.87;;;4.73;;
8986;SDS011;4529;51.360;12.474;2023-05-28T06:56:32;7.13;;;4.87;;
8986;SDS011;4529;51.360;12.474;2023-05-28T07:01:35;6.50;;;4.53;;
8986;SDS011;4529;51.360;12.474;2023-05-28T07:06:39;6.67;;;4.23;;
8986;SDS011;4529;51.360;12.474;2023-05-28T07:11:42;8.13;;;4.10;;
8986;SDS011;4529;51.360;12.474;2023-05-28T07:16:46;6.77;;;4.60;;
8986;SDS011;4529;51.360;12.474;2023-05-28T07:21:49;7.53;;;4.17;;
8986;SDS011;4529;51.360;12.474;2023-05-28T07:26:53;6.17;;;3.70;;
8986;SDS011;4529;51.360;12.474;2023-05-28T07:31:56;7.13;;;3.67;;
8986;SDS011;4529;51.360;12.474;2023-05-28T07:36:59;7.27;;;3.80;;
8986;SDS011;4529;51.360;12.474;2023-05-28T07:42:03;9.60;;;3.80;;
8986;SDS011;4529;51.360;12.474;2023-05-28T07:47:07;5.40;;;3.50;;
8986;SDS011;4529;51.360;12.474;2023-05-28T07:52:10;6.90;;;3.60;;
8986;SDS011;4529;51.360;12.474;2023-05-28T07:57:13;5.40;;;3.80;;
8986;SDS011;4529;51.360;12.474;2023-05-28T08:02:17;5.03;;;3.70;;
8986;SDS011;4529;51.360;12.474;2023-05-28T08:07:20;3.40;;;3.10;;
8986;SDS011;4529;51.360;12.474;2023-05-28T08:12:24;6.40;;;3.00;;
8986;SDS011;4529;51.360;12.474;2023-05-28T08:17:29;5.13;;;2.67;;
8986;SDS011;4529;51.360;12.474;2023-05-28T08:22:31;5.60;;;2.80;;
8986;SDS011;4529;51.360;12.474;2023-05-28T08:27:34;3.83;;;2.93;;
8986;SDS011;4529;51.360;12.474;2023-05-28T08:32:38;6.20;;;3.23;;
8986;SDS011;4529;51.360;12.474;2023-05-28T08:37:41;6.13;;;2.77;;
8986;SDS011;4529;51.360;12.474;2023-05-28T08:42:45;3.50;;;2.80;;
8986;SDS011;4529;51.360;12.474;2023-05-28T08:47:48;5.67;;;2.80;;
8986;SDS011;4529;51.360;12.474;2023-05-28T08:52:51;3.00;;;2.70;;
8986;SDS011;4529;51.360;12.474;2023-05-28T08:57:55;4.43;;;2.70;;
8986;SDS011;4529;51.360;12.474;2023-05-28T09:02:58;5.70;;;2.60;;
8986;SDS011;4529;51.360;12.474;2023-05-28T09:08:05;4.47;;;2.57;;
8986;SDS011;4529;51.360;12.474;2023-05-28T09:13:08;4.30;;;2.70;;
8986;SDS011;4529;51.360;12.474;2023-05-28T09:18:12;3.67;;;2.33;;
8986;SDS011;4529;51.360;12.474;2023-05-28T09:23:18;4.43;;;2.40;;
8986;SDS011;4529;51.360;12.474;2023-05-28T09:28:25;4.20;;;2.50;;
8986;SDS011;4529;51.360;12.474;2023-05-28T09:33:29;4.70;;;2.63;;
8986;SDS011;4529;51.360;12.474;2023-05-28T09:38:39;4.97;;;2.83;;
8986;SDS011;4529;51.360;12.474;2023-05-28T09:43:41;4.07;;;2.40;;
8986;SDS011;4529;51.360;12.474;2023-05-28T09:48:45;4.43;;;2.60;;
8986;SDS011;4529;51.360;12.474;2023-05-28T09:53:48;3.30;;;2.50;;
8986;SDS011;4529;51.360;12.474;2023-05-28T09:58:58;4.70;;;2.60;;
8986;SDS011;4529;51.360;12.474;2023-05-28T10:04:01;3.30;;;2.40;;
8986;SDS011;4529;51.360;12.474;2023-05-28T10:09:04;4.33;;;2.60;;
8986;SDS011;4529;51.360;12.474;2023-05-28T10:14:07;6.50;;;2.70;;
8986;SDS011;4529;51.360;12.474;2023-05-28T10:19:11;4.07;;;2.60;;
8986;SDS011;4529;51.360;12.474;2023-05-28T10:24:14;5.03;;;2.50;;
8986;SDS011;4529;51.360;12.474;2023-05-28T10:29:18;5.63;;;2.60;;
8986;SDS011;4529;51.360;12.474;2023-05-28T10:34:22;4.10;;;2.50;;
8986;SDS011;4529;51.360;12.474;2023-05-28T10:39:25;4.23;;;2.30;;
8986;SDS011;4529;51.360;12.474;2023-05-28T10:44:47;3.23;;;2.50;;
8986;SDS011;4529;51.360;12.474;2023-05-28T10:49:32;3.60;;;2.40;;
8986;SDS011;4529;51.360;12.474;2023-05-28T11:04:54;3.97;;;2.50;;
8986;SDS011;4529;51.360;12.474;2023-05-28T11:10:06;4.80;;;2.83;;
8986;SDS011;4529;51.360;12.474;2023-05-28T11:15:10;4.50;;;2.70;;
8986;SDS011;4529;51.360;12.474;2023-05-28T11:20:20;4.90;;;2.43;;
8986;SDS011;4529;51.360;12.474;2023-05-28T11:25:26;3.37;;;2.40;;
8986;SDS011;4529;51.360;12.474;2023-05-28T11:30:29;3.33;;;2.50;;
8986;SDS011;4529;51.360;12.474;2023-05-28T11:35:33;3.57;;;2.27;;
8986;SDS011;4529;51.360;12.474;2023-05-28T11:40:36;3.13;;;2.63;;
8986;SDS011;4529;51.360;12.474;2023-05-28T11:45:40;5.33;;;2.30;;
8986;SDS011;4529;51.360;12.474;2023-05-28T11:50:43;3.17;;;2.50;;
8986;SDS011;4529;51.360;12.474;2023-05-28T11:55:47;2.77;;;2.47;;
8986;SDS011;4529;51.360;12.474;2023-05-28T12:00:55;4.63;;;2.60;;
8986;SDS011;4529;51.360;12.474;2023-05-28T12:05:53;6.57;;;2.57;;
8986;SDS011;4529;51.360;12.474;2023-05-28T12:11:03;4.23;;;2.80;;
8986;SDS011;4529;51.360;12.474;2023-05-28T12:16:10;6.13;;;2.33;;
8986;SDS011;4529;51.360;12.474;2023-05-28T12:21:14;13.93;;;2.90;;
8986;SDS011;4529;51.360;12.474;2023-05-28T12:26:17;4.73;;;2.40;;
8986;SDS011;4529;51.360;12.474;2023-05-28T12:31:26;2.73;;;2.50;;
8986;SDS011;4529;51.360;12.474;2023-05-28T12:36:24;4.47;;;2.50;;
8986;SDS011;4529;51.360;12.474;2023-05-28T12:41:27;3.73;;;2.80;;
8986;SDS011;4529;51.360;12.474;2023-05-28T12:46:31;4.83;;;2.83;;
8986;SDS011;4529;51.360;12.474;2023-05-28T12:51:35;2.67;;;2.40;;
8986;SDS011;4529;51.360;12.474;2023-05-28T12:56:39;5.33;;;2.70;;
8986;SDS011;4529;51.360;12.474;2023-05-28T13:01:43;6.37;;;2.83;;
8986;SDS011;4529;51.360;12.474;2023-05-28T13:06:47;2.87;;;2.40;;
8986;SDS011;4529;51.360;12.474;2023-05-28T13:11:51;4.77;;;2.80;;
8986;SDS011;4529;51.360;12.474;2023-05-28T13:16:55;3.07;;;2.57;;
8986;SDS011;4529;51.360;12.474;2023-05-28T13:22:00;4.50;;;2.50;;
8986;SDS011;4529;51.360;12.474;2023-05-28T13:27:04;3.47;;;2.40;;
8986;SDS011;4529;51.360;12.474;2023-05-28T13:32:08;3.10;;;2.40;;
8986;SDS011;4529;51.360;12.474;2023-05-28T13:37:12;3.07;;;2.40;;
8986;SDS011;4529;51.360;12.474;2023-05-28T13:42:15;3.30;;;2.60;;
8986;SDS011;4529;51.360;12.474;2023-05-28T13:47:19;4.67;;;2.30;;
8986;SDS011;4529;51.360;12.474;2023-05-28T13:52:22;3.90;;;2.60;;
8986;SDS011;4529;51.360;12.474;2023-05-28T13:57:29;3.70;;;2.57;;
8986;SDS011;4529;51.360;12.474;2023-05-28T14:02:33;3.10;;;2.70;;
8986;SDS011;4529;51.360;12.474;2023-05-28T14:07:37;4.53;;;2.27;;
8986;SDS011;4529;51.360;12.474;2023-05-28T14:12:41;3.60;;;2.30;;
8986;SDS011;4529;51.360;12.474;2023-05-28T14:17:45;2.40;;;2.20;;
8986;SDS011;4529;51.360;12.474;2023-05-28T14:22:49;3.40;;;2.30;;
8986;SDS011;4529;51.360;12.474;2023-05-28T14:27:52;4.50;;;2.43;;
8986;SDS011;4529;51.360;12.474;2023-05-28T14:32:56;3.77;;;2.43;;
8986;SDS011;4529;51.360;12.474;2023-05-28T14:37:59;3.27;;;2.30;;
8986;SDS011;4529;51.360;12.474;2023-05-28T14:43:03;4.07;;;2.10;;
8986;SDS011;4529;51.360;12.474;2023-05-28T14:48:07;3.07;;;2.50;;
8986;SDS011;4529;51.360;12.474;2023-05-28T14:53:11;5.10;;;2.80;;
8986;SDS011;4529;51.360;12.474;2023-05-28T14:58:15;2.83;;;2.20;;
8986;SDS011;4529;51.360;12.474;2023-05-28T15:03:19;3.33;;;2.10;;
8986;SDS011;4529;51.360;12.474;2023-05-28T15:08:23;3.43;;;2.20;;
8986;SDS011;4529;51.360;12.474;2023-05-28T15:13:26;3.17;;;2.33;;
8986;SDS011;4529;51.360;12.474;2023-05-28T15:18:30;2.73;;;2.10;;
8986;SDS011;4529;51.360;12.474;2023-05-28T15:23:33;3.30;;;2.30;;
8986;SDS011;4529;51.360;12.474;2023-05-28T15:28:37;2.50;;;2.30;;
8986;SDS011;4529;51.360;12.474;2023-05-28T15:33:40;5.83;;;2.53;;
8986;SDS011;4529;51.360;12.474;2023-05-28T15:38:44;4.30;;;2.90;;
8986;SDS011;4529;51.360;12.474;2023-05-28T15:43:48;3.60;;;2.90;;
8986;SDS011;4529;51.360;12.474;2023-05-28T15:48:51;4.57;;;2.60;;
8986;SDS011;4529;51.360;12.474;2023-05-28T15:53:56;3.87;;;2.40;;
8986;SDS011;4529;51.360;12.474;2023-05-28T15:58:58;4.87;;;2.67;;
8986;SDS011;4529;51.360;12.474;2023-05-28T16:04:02;3.10;;;2.80;;
8986;SDS011;4529;51.360;12.474;2023-05-28T16:09:05;4.60;;;2.60;;
8986;SDS011;4529;51.360;12.474;2023-05-28T16:14:09;2.30;;;2.10;;
8986;SDS011;4529;51.360;12.474;2023-05-28T16:19:13;3.63;;;3.03;;
8986;SDS011;4529;51.360;12.474;2023-05-28T16:24:18;4.03;;;2.50;;
8986;SDS011;4529;51.360;12.474;2023-05-28T16:29:22;3.10;;;2.30;;
8986;SDS011;4529;51.360;12.474;2023-05-28T16:34:25;3.93;;;2.77;;
8986;SDS011;4529;51.360;12.474;2023-05-28T16:39:30;4.03;;;2.90;;
8986;SDS011;4529;51.360;12.474;2023-05-28T16:44:34;6.83;;;3.50;;
8986;SDS011;4529;51.360;12.474;2023-05-28T16:49:37;4.63;;;2.97;;
8986;SDS011;4529;51.360;12.474;2023-05-28T16:54:42;2.90;;;2.60;;
8986;SDS011;4529;51.360;12.474;2023-05-28T16:59:45;3.00;;;2.70;;
8986;SDS011;4529;51.360;12.474;2023-05-28T17:04:49;3.47;;;2.57;;
8986;SDS011;4529;51.360;12.474;2023-05-28T17:09:52;4.23;;;2.70;;
8986;SDS011;4529;51.360;12.474;2023-05-28T17:14:55;3.50;;;2.60;;
8986;SDS011;4529;51.360;12.474;2023-05-28T17:19:59;4.20;;;2.80;;
8986;SDS011;4529;51.360;12.474;2023-05-28T17:25:03;8.43;;;2.80;;
8986;SDS011;4529;51.360;12.474;2023-05-28T17:30:06;2.73;;;2.50;;
8986;SDS011;4529;51.360;12.474;2023-05-28T17:35:10;4.00;;;2.90;;
8986;SDS011;4529;51.360;12.474;2023-05-28T17:40:13;3.40;;;2.57;;
8986;SDS011;4529;51.360;12.474;2023-05-28T17:45:16;3.30;;;2.70;;
8986;SDS011;4529;51.360;12.474;2023-05-28T17:50:20;3.80;;;2.93;;
8986;SDS011;4529;51.360;12.474;2023-05-28T17:55:23;3.23;;;2.70;;
8986;SDS011;4529;51.360;12.474;2023-05-28T18:00:27;5.07;;;3.10;;
8986;SDS011;4529;51.360;12.474;2023-05-28T18:05:30;3.20;;;2.90;;
8986;SDS011;4529;51.360;12.474;2023-05-28T18:10:34;3.23;;;2.93;;
8986;SDS011;4529;51.360;12.474;2023-05-28T18:15:37;4.23;;;3.00;;
8986;SDS011;4529;51.360;12.474;2023-05-28T18:20:41;4.20;;;2.80;;
8986;SDS011;4529;51.360;12.474;2023-05-28T18:25:44;3.30;;;2.73;;
8986;SDS011;4529;51.360;12.474;2023-05-28T18:30:48;4.07;;;2.57;;
8986;SDS011;4529;51.360;12.474;2023-05-28T18:35:51;3.23;;;2.77;;
8986;SDS011;4529;51.360;12.474;2023-05-28T18:40:55;4.27;;;2.93;;
8986;SDS011;4529;51.360;12.474;2023-05-28T18:45:58;3.77;;;3.20;;
8986;SDS011;4529;51.360;12.474;2023-05-28T18:51:02;3.67;;;3.20;;
8986;SDS011;4529;51.360;12.474;2023-05-28T18:56:05;4.07;;;3.37;;
8986;SDS011;4529;51.360;12.474;2023-05-28T19:01:08;3.43;;;2.87;;
8986;SDS011;4529;51.360;12.474;2023-05-28T19:06:12;4.43;;;3.00;;
8986;SDS011;4529;51.360;12.474;2023-05-28T19:11:15;2.97;;;2.67;;
8986;SDS011;4529;51.360;12.474;2023-05-28T19:16:19;4.40;;;2.70;;
8986;SDS011;4529;51.360;12.474;2023-05-28T19:21:22;3.30;;;2.97;;
8986;SDS011;4529;51.360;12.474;2023-05-28T19:26:26;3.43;;;3.13;;
8986;SDS011;4529;51.360;12.474;2023-05-28T19:31:29;4.60;;;3.30;;
8986;SDS011;4529;51.360;12.474;2023-05-28T19:36:33;4.20;;;3.33;;
8986;SDS011;4529;51.360;12.474;2023-05-28T19:41:36;4.20;;;3.57;;
8986;SDS011;4529;51.360;12.474;2023-05-28T19:46:40;3.50;;;3.20;;
8986;SDS011;4529;51.360;12.474;2023-05-28T19:51:43;4.53;;;3.70;;
8986;SDS011;4529;51.360;12.474;2023-05-28T19:56:47;13.33;;;9.90;;
8986;SDS011;4529;51.360;12.474;2023-05-28T20:01:50;10.23;;;7.63;;
8986;SDS011;4529;51.360;12.474;2023-05-28T20:06:53;8.27;;;7.03;;
8986;SDS011;4529;51.360;12.474;2023-05-28T20:11:57;6.30;;;5.57;;
8986;SDS011;4529;51.360;12.474;2023-05-28T20:17:00;6.07;;;5.37;;
8986;SDS011;4529;51.360;12.474;2023-05-28T20:22:04;5.97;;;5.07;;
8986;SDS011;4529;51.360;12.474;2023-05-28T20:27:07;6.37;;;5.00;;
8986;SDS011;4529;51.360;12.474;2023-05-28T20:32:11;5.50;;;4.60;;
8986;SDS011;4529;51.360;12.474;2023-05-28T20:37:14;5.17;;;4.23;;
8986;SDS011;4529;51.360;12.474;2023-05-28T20:42:18;5.80;;;4.23;;
8986;SDS011;4529;51.360;12.474;2023-05-28T20:47:21;6.03;;;4.03;;
8986;SDS011;4529;51.360;12.474;2023-05-28T20:52:25;6.03;;;4.17;;
8986;SDS011;4529;51.360;12.474;2023-05-28T20:57:44;4.57;;;3.80;;
8986;SDS011;4529;51.360;12.474;2023-05-28T21:02:44;3.67;;;3.23;;
8986;SDS011;4529;51.360;12.474;2023-05-28T21:07:47;4.90;;;3.27;;
8986;SDS011;4529;51.360;12.474;2023-05-28T21:12:50;4.23;;;3.40;;
8986;SDS011;4529;51.360;12.474;2023-05-28T21:17:54;3.87;;;3.27;;
8986;SDS011;4529;51.360;12.474;2023-05-28T21:22:57;4.63;;;3.40;;
8986;SDS011;4529;51.360;12.474;2023-05-28T21:28:01;4.87;;;3.13;;
8986;SDS011;4529;51.360;12.474;2023-05-28T21:33:04;6.13;;;3.60;;
8986;SDS011;4529;51.360;12.474;2023-05-28T21:38:08;4.37;;;3.43;;
8986;SDS011;4529;51.360;12.474;2023-05-28T21:43:11;5.13;;;4.13;;
8986;SDS011;4529;51.360;12.474;2023-05-28T21:48:15;4.53;;;3.77;;
8986;SDS011;4529;51.360;12.474;2023-05-28T21:53:18;6.07;;;3.70;;
8986;SDS011;4529;51.360;12.474;2023-05-28T21:58:22;4.63;;;3.57;;
8986;SDS011;4529;51.360;12.474;2023-05-28T22:03:25;4.27;;;3.43;;
8986;SDS011;4529;51.360;12.474;2023-05-28T22:08:29;3.90;;;3.50;;
8986;SDS011;4529;51.360;12.474;2023-05-28T22:13:32;5.97;;;4.43;;
8986;SDS011;4529;51.360;12.474;2023-05-28T22:18:35;6.23;;;3.93;;
8986;SDS011;4529;51.360;12.474;2023-05-28T22:23:39;4.30;;;3.40;;
8986;SDS011;4529;51.360;12.474;2023-05-28T22:28:42;3.90;;;3.53;;
8986;SDS011;4529;51.360;12.474;2023-05-28T22:33:46;3.90;;;3.50;;
8986;SDS011;4529;51.360;12.474;2023-05-28T22:38:49;3.73;;;3.23;;
8986;SDS011;4529;51.360;12.474;2023-05-28T22:43:53;4.17;;;3.43;;
8986;SDS011;4529;51.360;12.474;2023-05-28T22:48:56;8.53;;;3.87;;
8986;SDS011;4529;51.360;12.474;2023-05-28T22:54:00;5.17;;;3.63;;
8986;SDS011;4529;51.360;12.474;2023-05-28T22:59:03;5.07;;;3.70;;
8986;SDS011;4529;51.360;12.474;2023-05-28T23:04:07;5.50;;;3.60;;
8986;SDS011;4529;51.360;12.474;2023-05-28T23:09:10;4.03;;;3.40;;
8986;SDS011;4529;51.360;12.474;2023-05-28T23:14:14;4.33;;;3.43;;
8986;SDS011;4529;51.360;12.474;2023-05-28T23:19:17;3.50;;;3.13;;
8986;SDS011;4529;51.360;12.474;2023-05-28T23:24:21;4.73;;;3.30;;
8986;SDS011;4529;51.360;12.474;2023-05-28T23:29:24;3.73;;;3.17;;
8986;SDS011;4529;51.360;12.474;2023-05-28T23:34:28;3.57;;;3.17;;
8986;SDS011;4529;51.360;12.474;2023-05-28T23:39:31;5.67;;;3.63;;
8986;SDS011;4529;51.360;12.474;2023-05-28T23:44:35;5.33;;;3.67;;
8986;SDS011;4529;51.360;12.474;2023-05-28T23:49:39;4.27;;;3.50;;
8986;SDS011;4529;51.360;12.474;2023-05-28T23:54:43;3.83;;;3.30;;
8986;SDS011;4529;51.360;12.474;2023-05-28T23:59:47;3.90;;;3.50;;
